Archival Weather

Republic

Farmingdale, New York (KFRG)

Report from: Friday, February 23, 2024 5:53 AM EST
Current time: Friday, June 21, 2024 4:19 AM EDT

Current weather – Weather history – Daily summaries
Weather forecast

Temperature5.6°C (42.1°F)
Wind chill4.0°C (39.2°F)
Dew point3.9°C (39.0°F)
Winds 4 kts (2.1 m/s, 4.6 mph) Southwest (230°)
Visibility10 mi. (16.1 km)
Clouds Few clouds 12,000 ft. (3,658 m)
Altimeter29.53 in.Hg (1000 mB)
Relative humidity89 %
Density altitude-566 ft. (-173 m)
Sea-level pressure100.0 kPa (1000 mB, 29.53 in.Hg)
Remarks Fully automated report
Automated weather observing station without precipitation discriminator
Flight conditions Visual Meteorological Conditions
Raw dataKFRG 231053Z AUTO 23004KT 10SM FEW120 06/04 A2953 RMK AO1 SLP001 T00560039
An error has occurred. This application may no longer respond until reloaded. Reload 🗙